Time;durP1;ratioP1;P1;durP2;ratioP2;P2;SDS_P1;SDS_P2;PMS_P1;PMS_P2;Temp;Humidity;BMP_temperature;BMP_pressure;BME280_temperature;BME280_humidity;BME280_pressure;Samples;Min_cycle;Max_cycle;Signal;HPM_P1;HPM_P2
2022/11/21 00:01:31;;;;;;;54.17;26.13;;;5.10;99.90;;;;;;5097242;28;20031;-74
2022/11/21 00:03:57;;;;;;;51.67;24.85;;;5.10;99.90;;;;;;5095100;28;20028;-74
2022/11/21 00:06:22;;;;;;;52.50;25.83;;;5.10;99.90;;;;;;5093499;28;20039;-74
2022/11/21 00:08:49;;;;;;;55.90;26.05;;;5.20;99.90;;;;;;5094767;28;20032;-75
2022/11/21 00:11:15;;;;;;;61.70;25.58;;;5.20;99.90;;;;;;5096403;28;20485;-75
2022/11/21 00:13:41;;;;;;;58.85;26.25;;;5.20;99.90;;;;;;5094156;28;20482;-74
2022/11/21 00:16:14;;;;;;;52.97;24.98;;;5.20;99.90;;;;;;5094787;28;20082;-74
2022/11/21 00:18:41;;;;;;;55.42;25.83;;;5.30;99.90;;;;;;5094862;28;20028;-74
2022/11/21 00:21:10;;;;;;;57.22;25.30;;;5.30;99.90;;;;;;5105158;28;20045;-74
2022/11/21 00:23:36;;;;;;;58.75;25.40;;;5.30;99.90;;;;;;5105430;28;20394;-74
2022/11/21 00:26:09;;;;;;;55.28;25.05;;;5.30;99.90;;;;;;5094739;28;20031;-74
2022/11/21 00:28:35;;;;;;;53.42;26.15;;;5.30;99.90;;;;;;5093203;28;20032;-74
2022/11/21 00:31:01;;;;;;;58.45;26.30;;;5.30;99.90;;;;;;5103178;28;20101;-74
2022/11/21 00:33:26;;;;;;;58.13;26.10;;;5.40;99.90;;;;;;5094018;28;20430;-74
2022/11/21 00:35:52;;;;;;;59.45;26.35;;;5.40;99.90;;;;;;5094350;28;20035;-75
2022/11/21 00:38:17;;;;;;;57.25;26.08;;;5.40;99.90;;;;;;5097098;28;21809;-75
2022/11/21 00:40:43;;;;;;;64.63;27.85;;;5.40;99.90;;;;;;5114446;28;20455;-75
2022/11/21 00:43:09;;;;;;;68.55;29.17;;;5.40;99.90;;;;;;5111722;28;20440;-75
2022/11/21 00:45:35;;;;;;;66.20;28.25;;;5.40;99.90;;;;;;5109439;28;20034;-75
2022/11/21 00:48:01;;;;;;;66.57;28.52;;;5.40;99.90;;;;;;5093033;28;20020;-75
2022/11/21 00:50:26;;;;;;;68.57;28.38;;;5.30;99.90;;;;;;5094348;28;20372;-75
2022/11/21 00:52:56;;;;;;;65.97;27.13;;;5.30;99.90;;;;;;5094106;28;20406;-75
2022/11/21 00:55:22;;;;;;;61.75;25.95;;;5.30;99.90;;;;;;5090381;28;20017;-75
2022/11/21 00:57:48;;;;;;;58.55;26.58;;;5.30;99.90;;;;;;5084091;28;20029;-75
2022/11/21 01:00:14;;;;;;;59.63;26.45;;;5.30;99.90;;;;;;5094129;28;20341;-75
2022/11/21 01:02:39;;;;;;;65.13;26.80;;;5.20;99.90;;;;;;5097389;28;20514;-75
2022/11/21 01:05:05;;;;;;;61.55;26.20;;;5.20;99.90;;;;;;5092631;28;20118;-75
2022/11/21 01:07:31;;;;;;;60.38;26.10;;;5.20;99.90;;;;;;5091810;28;20047;-75
2022/11/21 01:09:57;;;;;;;62.47;26.67;;;5.20;99.90;;;;;;5091072;28;20105;-76
2022/11/21 01:12:23;;;;;;;63.65;27.80;;;5.20;99.90;;;;;;5092616;28;20118;-75
2022/11/21 01:14:49;;;;;;;72.60;28.42;;;5.30;99.90;;;;;;5091262;28;20399;-75
2022/11/21 01:17:15;;;;;;;62.83;26.20;;;5.30;99.90;;;;;;5091398;28;20107;-75
2022/11/21 01:19:40;;;;;;;60.90;27.02;;;5.30;99.90;;;;;;5091403;28;20689;-76
2022/11/21 01:22:06;;;;;;;63.00;27.48;;;5.30;99.90;;;;;;5092886;28;20024;-76
2022/11/21 01:24:31;;;;;;;62.10;26.08;;;5.20;99.90;;;;;;5090830;28;20027;-76
2022/11/21 01:26:57;;;;;;;63.70;26.80;;;5.30;99.90;;;;;;5090075;28;20028;-76
2022/11/21 01:29:23;;;;;;;75.45;28.10;;;5.30;99.90;;;;;;5091061;28;20341;-76
2022/11/21 01:31:48;;;;;;;61.47;26.50;;;5.30;99.90;;;;;;5087428;28;20085;-76
2022/11/21 01:34:14;;;;;;;61.67;27.73;;;5.30;99.90;;;;;;5090689;28;20035;-74
2022/11/21 01:36:40;;;;;;;62.63;27.83;;;5.30;99.90;;;;;;5090057;28;20069;-74
2022/11/21 01:39:06;;;;;;;67.88;26.65;;;5.30;99.90;;;;;;5093557;28;20452;-75
2022/11/21 01:41:36;;;;;;;69.28;27.42;;;5.20;99.90;;;;;;5085523;28;20032;-75
2022/11/21 01:44:23;;;;;;;64.65;26.65;;;5.20;99.90;;;;;;5073031;28;20024;-75
2022/11/21 01:46:50;;;;;;;69.63;27.20;;;5.20;99.90;;;;;;5081671;28;20043;-75
2022/11/21 01:49:17;;;;;;;71.82;26.70;;;5.20;99.90;;;;;;5091833;28;20086;-75
2022/11/21 01:52:03;;;;;;;70.50;27.90;;;5.20;99.90;;;;;;5091713;28;20043;-75
2022/11/21 01:54:46;;;;;;;65.93;26.67;;;5.30;99.90;;;;;;5072562;28;20055;-75
2022/11/21 01:57:44;;;;;;;71.22;27.13;;;5.30;99.90;;;;;;5072975;28;20397;-74
2022/11/21 02:00:14;;;;;;;61.88;24.75;;;5.20;99.90;;;;;;5090630;28;20029;-75
2022/11/21 02:02:45;;;;;;;67.90;25.67;;;5.20;99.90;;;;;;5106339;28;20027;-76
2022/11/21 02:05:17;;;;;;;62.70;27.48;;;5.20;99.90;;;;;;5113380;28;20144;-76
2022/11/21 02:07:46;;;;;;;61.92;24.98;;;5.20;99.90;;;;;;5113141;28;20034;-76
2022/11/21 02:10:13;;;;;;;61.05;25.98;;;5.20;99.90;;;;;;5110279;28;20494;-76
2022/11/21 02:12:48;;;;;;;62.15;25.15;;;5.20;99.90;;;;;;5072957;28;20453;-75
2022/11/21 02:15:13;;;;;;;59.95;25.23;;;5.10;99.90;;;;;;5073057;28;20023;-76
2022/11/21 02:17:39;;;;;;;64.00;26.27;;;5.10;99.90;;;;;;5072527;28;20112;-76
2022/11/21 02:20:08;;;;;;;65.78;27.20;;;5.10;99.90;;;;;;5087614;28;20343;-76
2022/11/21 02:22:56;;;;;;;62.20;27.38;;;5.10;99.90;;;;;;5092028;28;20050;-76
2022/11/21 02:25:36;;;;;;;67.80;26.00;;;5.10;99.90;;;;;;5102310;28;20022;-76
2022/11/21 02:28:05;;;;;;;64.97;27.20;;;5.10;99.90;;;;;;5113106;28;20143;-76
2022/11/21 02:30:33;;;;;;;69.68;26.95;;;5.10;99.90;;;;;;5108957;28;20042;-76
2022/11/21 02:32:59;;;;;;;66.90;25.38;;;5.00;99.90;;;;;;5076036;28;20048;-75
2022/11/21 02:35:25;;;;;;;63.15;26.50;;;5.00;99.90;;;;;;5081884;28;20028;-76
2022/11/21 02:37:58;;;;;;;67.32;25.98;;;5.10;99.90;;;;;;5092984;28;20070;-76
2022/11/21 02:40:36;;;;;;;68.15;26.10;;;5.10;99.90;;;;;;5091863;28;20050;-76
2022/11/21 02:43:16;;;;;;;60.83;23.92;;;5.10;99.90;;;;;;5093001;28;20027;-75
2022/11/21 02:45:44;;;;;;;67.45;24.15;;;5.00;99.90;;;;;;5092696;28;20032;-75
2022/11/21 02:48:10;;;;;;;66.95;24.58;;;4.90;99.90;;;;;;5091516;28;20016;-76
2022/11/21 02:50:38;;;;;;;64.78;23.10;;;5.00;99.90;;;;;;5090634;28;20028;-76
2022/11/21 02:53:05;;;;;;;67.85;24.92;;;4.90;99.90;;;;;;5092235;28;20053;-75
2022/11/21 02:55:31;;;;;;;73.50;24.40;;;4.90;99.90;;;;;;5095567;28;20020;-76
2022/11/21 02:57:57;;;;;;;70.18;24.45;;;4.90;99.90;;;;;;5112953;28;20073;-76
2022/11/21 03:00:23;;;;;;;106.00;25.67;;;4.80;99.90;;;;;;5113340;28;20081;-75
2022/11/21 03:02:49;;;;;;;84.50;26.75;;;4.80;99.90;;;;;;5107611;28;20023;-75
2022/11/21 03:05:17;;;;;;;89.57;27.15;;;4.80;99.90;;;;;;5112726;28;20027;-75
2022/11/21 03:07:43;;;;;;;70.18;27.42;;;4.80;99.90;;;;;;5094174;28;20032;-75
2022/11/21 03:10:09;;;;;;;73.15;26.42;;;4.90;99.90;;;;;;5092542;28;20032;-75
2022/11/21 03:12:39;;;;;;;77.30;26.48;;;4.90;99.90;;;;;;5091713;28;20098;-76
2022/11/21 03:15:07;;;;;;;75.97;26.83;;;4.90;99.90;;;;;;5091042;28;20020;-75
2022/11/21 03:17:32;;;;;;;65.65;26.73;;;5.00;99.90;;;;;;5092341;28;20090;-75
2022/11/21 03:19:58;;;;;;;68.18;26.52;;;5.00;99.90;;;;;;5092386;28;20032;-75
2022/11/21 03:22:24;;;;;;;65.45;26.10;;;5.00;99.90;;;;;;5092272;28;20387;-75
2022/11/21 03:24:49;;;;;;;69.72;27.13;;;5.00;99.90;;;;;;5090921;28;20134;-75
2022/11/21 03:27:15;;;;;;;73.07;27.52;;;5.00;99.90;;;;;;5092228;28;20016;-76
2022/11/21 03:29:40;;;;;;;77.07;27.90;;;5.10;99.90;;;;;;5091635;28;20024;-75
2022/11/21 03:32:06;;;;;;;71.07;28.27;;;5.10;99.90;;;;;;5096288;28;20051;-75
2022/11/21 03:34:32;;;;;;;69.40;27.58;;;5.10;99.90;;;;;;5096281;28;20028;-76
2022/11/21 03:36:57;;;;;;;67.80;26.90;;;5.10;99.90;;;;;;5095860;28;20491;-75
2022/11/21 03:39:23;;;;;;;72.25;28.98;;;5.20;99.90;;;;;;5096051;28;20023;-75
2022/11/21 03:41:49;;;;;;;73.07;27.80;;;5.20;99.90;;;;;;5093133;28;20016;-76
2022/11/21 03:44:15;;;;;;;67.22;28.98;;;5.20;99.90;;;;;;5093346;28;20027;-75
2022/11/21 03:46:43;;;;;;;71.07;25.92;;;5.20;99.90;;;;;;5095369;28;20115;-75
2022/11/21 03:49:09;;;;;;;79.10;26.63;;;5.20;99.90;;;;;;5105158;28;20024;-76
2022/11/21 03:51:36;;;;;;;72.47;25.13;;;5.20;99.90;;;;;;5095653;28;20102;-76
2022/11/21 03:54:02;;;;;;;73.43;26.35;;;5.20;99.90;;;;;;5095962;28;20111;-76
2022/11/21 03:56:28;;;;;;;65.47;26.45;;;5.20;99.90;;;;;;5095302;28;20035;-76
2022/11/21 03:58:54;;;;;;;67.28;25.05;;;5.10;99.90;;;;;;5087312;28;20036;-75
2022/11/21 04:01:20;;;;;;;81.28;27.25;;;5.20;99.90;;;;;;5097052;28;20024;-76
2022/11/21 04:03:46;;;;;;;71.53;27.08;;;5.10;99.90;;;;;;5115862;28;20027;-76
2022/11/21 04:06:14;;;;;;;66.10;24.85;;;5.10;99.90;;;;;;5102155;28;20091;-75
2022/11/21 04:08:39;;;;;;;69.85;27.58;;;5.00;99.90;;;;;;5106630;28;20046;-75
2022/11/21 04:11:05;;;;;;;83.75;30.75;;;5.00;99.90;;;;;;5115972;28;20028;-76
2022/11/21 04:13:31;;;;;;;85.63;28.80;;;5.00;99.90;;;;;;5114698;28;20363;-75
2022/11/21 04:15:56;;;;;;;72.10;26.33;;;5.00;99.90;;;;;;5091805;28;20025;-74
2022/11/21 04:18:22;;;;;;;60.88;23.75;;;4.90;99.90;;;;;;5090568;28;20060;-75
2022/11/21 04:20:48;;;;;;;103.90;28.15;;;4.80;99.90;;;;;;5095497;28;20024;-75
2022/11/21 04:23:14;;;;;;;78.20;28.48;;;4.80;99.90;;;;;;5095113;28;20022;-75
2022/11/21 04:25:40;;;;;;;70.38;27.75;;;4.80;99.90;;;;;;5095196;28;20368;-74
2022/11/21 04:28:06;;;;;;;62.78;25.13;;;4.80;99.90;;;;;;5094990;28;20028;-75
2022/11/21 04:30:33;;;;;;;61.65;25.40;;;4.80;99.90;;;;;;5094111;28;20128;-75
2022/11/21 04:32:59;;;;;;;71.30;23.05;;;4.70;99.90;;;;;;5107360;28;20044;-76
2022/11/21 04:35:25;;;;;;;76.97;24.65;;;4.70;99.90;;;;;;5088854;28;20022;-74
2022/11/21 04:37:51;;;;;;;54.85;22.60;;;4.70;99.90;;;;;;5095216;28;20052;-74
2022/11/21 04:40:17;;;;;;;82.75;25.67;;;4.70;99.90;;;;;;5094298;28;20425;-77
2022/11/21 04:42:46;;;;;;;142.43;30.13;;;4.60;99.90;;;;;;5094486;28;20036;-76
2022/11/21 04:45:13;;;;;;;75.97;26.25;;;4.60;99.90;;;;;;5094834;28;20039;-75
2022/11/21 04:47:41;;;;;;;70.07;24.75;;;4.60;99.90;;;;;;5094839;28;20020;-76
2022/11/21 04:50:08;;;;;;;76.15;27.20;;;4.60;99.90;;;;;;5094579;28;20402;-74
2022/11/21 04:52:34;;;;;;;148.93;33.97;;;4.60;99.90;;;;;;5090783;28;20051;-74
2022/11/21 04:55:00;;;;;;;96.90;26.98;;;4.60;99.90;;;;;;5085561;28;20103;-76
2022/11/21 04:57:30;;;;;;;161.27;32.15;;;4.70;99.90;;;;;;5094187;28;20034;-75
2022/11/21 04:59:56;;;;;;;99.03;29.15;;;4.70;99.90;;;;;;5094574;28;20032;-76
2022/11/21 05:02:22;;;;;;;142.45;32.63;;;4.70;99.90;;;;;;5110664;28;20328;-76
2022/11/21 05:04:47;;;;;;;185.50;36.85;;;4.70;99.90;;;;;;5114641;28;20015;-75
2022/11/21 05:07:13;;;;;;;120.70;28.00;;;4.70;99.90;;;;;;5114884;28;20432;-74
2022/11/21 05:09:39;;;;;;;117.95;30.67;;;4.70;99.90;;;;;;5101712;28;20426;-74
2022/11/21 05:14:49;;;;;;;69.20;22.80;;;4.70;99.90;;;;;;5103871;28;20079;-75
2022/11/21 05:17:15;;;;;;;166.00;35.13;;;4.70;99.90;;;;;;5094451;28;20109;-75
2022/11/21 05:19:41;;;;;;;70.13;26.67;;;4.70;99.90;;;;;;5094253;28;20020;-76
2022/11/21 05:22:07;;;;;;;101.35;28.60;;;4.70;99.90;;;;;;5113175;28;20031;-76
2022/11/21 05:24:32;;;;;;;71.95;26.90;;;4.80;99.90;;;;;;5109382;28;20028;-74
2022/11/21 05:26:58;;;;;;;107.32;27.80;;;4.80;99.90;;;;;;5076559;28;20027;-76
2022/11/21 05:29:23;;;;;;;77.80;26.45;;;4.90;99.90;;;;;;5073236;28;20028;-74
2022/11/21 05:31:49;;;;;;;111.00;28.92;;;4.90;99.90;;;;;;5100545;28;20138;-74
2022/11/21 05:34:14;;;;;;;123.72;30.67;;;4.90;99.90;;;;;;5113947;28;20511;-74
2022/11/21 05:36:40;;;;;;;117.60;30.48;;;4.90;99.90;;;;;;5114597;28;20031;-75
2022/11/21 05:39:06;;;;;;;96.10;29.80;;;5.00;99.90;;;;;;5097391;28;20028;-74
2022/11/21 05:41:31;;;;;;;169.27;33.78;;;5.00;99.90;;;;;;5086664;28;20191;-75
2022/11/21 05:43:57;;;;;;;217.73;37.60;;;5.00;99.90;;;;;;5086922;28;20020;-76
2022/11/21 05:46:24;;;;;;;75.72;28.00;;;5.00;99.90;;;;;;5092864;28;20023;-75
2022/11/21 05:48:51;;;;;;;89.20;29.05;;;5.00;99.90;;;;;;5093526;28;20024;-74
2022/11/21 05:51:18;;;;;;;56.13;22.23;;;5.00;99.90;;;;;;5098238;28;20063;-74
2022/11/21 05:53:44;;;;;;;148.85;29.77;;;5.00;99.90;;;;;;5111720;28;20416;-75
2022/11/21 05:56:12;;;;;;;64.75;23.92;;;4.90;99.90;;;;;;5113764;28;20046;-76
2022/11/21 05:58:38;;;;;;;59.65;21.90;;;4.90;99.90;;;;;;5111796;28;20074;-77
2022/11/21 06:01:05;;;;;;;70.90;23.85;;;5.00;99.90;;;;;;5093145;28;20460;-76
2022/11/21 06:03:34;;;;;;;71.10;26.80;;;5.00;99.90;;;;;;5114091;28;20024;-75
2022/11/21 06:06:00;;;;;;;60.92;23.98;;;4.90;99.90;;;;;;5114177;28;20015;-74
2022/11/21 06:08:28;;;;;;;62.08;23.90;;;4.90;99.90;;;;;;5114034;28;20024;-75
2022/11/21 06:10:53;;;;;;;64.35;24.77;;;5.00;99.90;;;;;;5113984;28;20031;-75
2022/11/21 06:13:22;;;;;;;90.63;26.17;;;4.90;99.90;;;;;;5096818;28;20353;-74
2022/11/21 06:15:48;;;;;;;91.15;27.70;;;4.90;99.90;;;;;;5093822;28;20024;-74
2022/11/21 06:18:15;;;;;;;84.53;24.45;;;4.90;99.90;;;;;;5088368;28;20020;-76
2022/11/21 06:20:40;;;;;;;63.40;24.05;;;4.90;99.90;;;;;;5073670;28;20082;-75
2022/11/21 06:23:06;;;;;;;157.90;32.22;;;4.90;99.90;;;;;;5086317;28;20024;-76
2022/11/21 06:25:31;;;;;;;80.63;25.05;;;4.90;99.90;;;;;;5092728;28;20024;-74
2022/11/21 06:27:59;;;;;;;65.03;23.08;;;4.80;99.90;;;;;;5092852;28;20077;-74
2022/11/21 06:30:24;;;;;;;73.07;26.65;;;4.80;99.90;;;;;;5098083;28;20358;-74
2022/11/21 06:32:50;;;;;;;92.30;25.23;;;4.80;99.90;;;;;;5107081;28;20044;-74
2022/11/21 06:35:15;;;;;;;371.30;52.40;;;4.70;99.90;;;;;;5073139;28;20127;-76
2022/11/21 06:37:41;;;;;;;68.18;24.13;;;4.80;99.90;;;;;;5076405;28;20045;-75
2022/11/21 06:40:07;;;;;;;64.68;24.02;;;4.80;99.90;;;;;;5072630;28;20024;-75
2022/11/21 06:42:32;;;;;;;67.78;23.70;;;4.80;99.90;;;;;;5081972;28;20027;-74
2022/11/21 06:44:58;;;;;;;73.10;25.70;;;4.70;99.90;;;;;;5092231;28;20035;-75
2022/11/21 06:47:24;;;;;;;67.40;23.50;;;4.80;99.90;;;;;;5092651;28;20070;-74
2022/11/21 06:49:49;;;;;;;57.10;22.52;;;4.70;99.90;;;;;;5093401;28;20056;-73
2022/11/21 06:52:15;;;;;;;64.07;24.88;;;4.80;99.90;;;;;;5091514;28;20364;-73
2022/11/21 06:54:40;;;;;;;118.78;30.67;;;4.70;99.90;;;;;;5092909;28;20060;-73
2022/11/21 06:57:06;;;;;;;249.90;39.42;;;4.80;99.90;;;;;;5092615;28;20012;-74
2022/11/21 06:59:32;;;;;;;61.42;24.40;;;4.80;99.90;;;;;;5092503;28;20059;-74
2022/11/21 07:01:57;;;;;;;79.88;26.90;;;4.80;99.90;;;;;;5091282;28;20027;-75
2022/11/21 07:04:23;;;;;;;206.55;38.00;;;4.80;99.90;;;;;;5071717;28;20082;-75
2022/11/21 07:06:48;;;;;;;139.30;29.75;;;4.80;99.90;;;;;;5076136;28;20025;-75
2022/11/21 07:09:14;;;;;;;68.07;25.15;;;4.90;99.90;;;;;;5086049;28;20039;-75
2022/11/21 07:11:39;;;;;;;155.98;31.73;;;4.90;99.90;;;;;;5095009;28;20034;-76
2022/11/21 07:14:05;;;;;;;277.25;48.97;;;4.90;99.90;;;;;;5096202;28;20432;-76
2022/11/21 07:16:32;;;;;;;88.93;26.45;;;4.90;99.90;;;;;;5096707;28;20020;-76
2022/11/21 07:18:59;;;;;;;69.90;25.33;;;4.90;99.90;;;;;;5096721;28;20111;-75
2022/11/21 07:21:25;;;;;;;72.57;26.30;;;4.90;99.90;;;;;;5096205;28;20146;-75
2022/11/21 07:23:51;;;;;;;72.38;26.50;;;4.90;99.90;;;;;;5111485;28;20027;-74
2022/11/21 07:26:17;;;;;;;121.35;34.75;;;5.00;99.90;;;;;;5117327;28;20020;-75
2022/11/21 07:28:42;;;;;;;73.00;26.55;;;5.00;99.90;;;;;;5117272;28;20051;-75
2022/11/21 07:31:09;;;;;;;65.60;25.02;;;5.00;99.90;;;;;;5107916;28;20055;-75
2022/11/21 07:33:36;;;;;;;178.07;36.15;;;5.00;99.90;;;;;;5116380;28;20030;-75
2022/11/21 07:36:02;;;;;;;104.30;28.23;;;5.00;99.90;;;;;;5117021;28;20022;-74
2022/11/21 07:38:27;;;;;;;67.18;27.10;;;5.00;99.90;;;;;;5113301;28;20095;-75
2022/11/21 07:40:55;;;;;;;62.47;25.92;;;5.00;99.90;;;;;;5086562;28;20127;-74
2022/11/21 07:43:21;;;;;;;95.72;27.42;;;5.00;99.90;;;;;;5104920;28;20414;-76
2022/11/21 07:45:46;;;;;;;61.75;25.58;;;5.00;99.90;;;;;;5095651;28;20020;-75
2022/11/21 07:48:12;;;;;;;70.32;25.75;;;5.00;99.90;;;;;;5094945;28;20020;-74
2022/11/21 07:50:38;;;;;;;65.07;25.40;;;5.10;99.90;;;;;;5095280;28;20020;-74
2022/11/21 07:53:05;;;;;;;66.55;26.27;;;5.10;99.90;;;;;;5095162;28;20395;-74
2022/11/21 07:55:31;;;;;;;74.65;27.10;;;5.10;99.90;;;;;;5095004;28;20020;-75
2022/11/21 07:58:09;;;;;;;71.72;27.65;;;5.10;99.90;;;;;;5096545;28;20016;-75
2022/11/21 08:00:37;;;;;;;65.20;24.30;;;5.10;99.90;;;;;;5095639;28;20028;-75
2022/11/21 08:03:04;;;;;;;61.45;23.70;;;5.10;99.90;;;;;;5110760;28;20072;-74
2022/11/21 08:05:29;;;;;;;58.35;24.20;;;5.20;99.90;;;;;;5089088;28;20020;-75
2022/11/21 08:07:55;;;;;;;71.97;26.20;;;5.20;99.90;;;;;;5088556;28;20081;-74
2022/11/21 08:10:21;;;;;;;67.53;24.70;;;5.20;99.90;;;;;;5095939;28;20406;-73
2022/11/21 08:12:46;;;;;;;73.18;26.55;;;5.20;99.90;;;;;;5079182;28;20039;-74
2022/11/21 08:15:12;;;;;;;72.43;25.65;;;5.30;99.90;;;;;;5091788;28;20380;-75
2022/11/21 08:17:38;;;;;;;64.22;24.73;;;5.30;99.90;;;;;;5092778;28;20024;-74
2022/11/21 08:20:06;;;;;;;49.35;19.00;;;5.30;99.90;;;;;;5092676;28;20494;-74
2022/11/21 08:22:31;;;;;;;65.28;25.15;;;5.30;99.90;;;;;;5095345;28;20016;-74
2022/11/21 08:24:57;;;;;;;54.08;20.50;;;5.30;99.90;;;;;;5089774;28;20104;-74
2022/11/21 08:27:23;;;;;;;123.10;29.70;;;5.40;99.90;;;;;;5094361;28;20035;-75
2022/11/21 08:29:49;;;;;;;70.28;23.25;;;5.40;99.90;;;;;;5094988;28;20101;-75
2022/11/21 08:32:14;;;;;;;73.15;25.13;;;5.40;99.90;;;;;;5097975;28;20504;-75
2022/11/21 08:34:40;;;;;;;74.50;23.40;;;5.40;99.90;;;;;;5092477;28;20047;-76
2022/11/21 08:37:05;;;;;;;52.70;19.98;;;5.50;99.90;;;;;;5094935;28;20360;-75
2022/11/21 08:39:31;;;;;;;54.03;20.73;;;5.60;99.90;;;;;;5095421;28;20444;-75
2022/11/21 08:42:03;;;;;;;52.90;21.60;;;5.60;99.90;;;;;;5089031;28;20024;-74
2022/11/21 08:44:32;;;;;;;47.13;18.95;;;5.60;99.90;;;;;;5084080;28;20539;-73
2022/11/21 08:46:58;;;;;;;52.42;21.60;;;5.70;99.90;;;;;;5093649;28;20070;-73
2022/11/21 08:49:24;;;;;;;40.10;17.70;;;5.70;99.90;;;;;;5094922;28;20024;-74
2022/11/21 08:51:50;;;;;;;53.40;20.50;;;5.80;99.90;;;;;;5101802;28;20397;-75
2022/11/21 08:54:21;;;;;;;42.95;16.63;;;5.80;99.90;;;;;;5108782;28;20016;-74
2022/11/21 08:56:47;;;;;;;49.47;19.88;;;5.80;99.90;;;;;;5092301;28;20020;-73
2022/11/21 08:59:14;;;;;;;46.25;18.33;;;5.90;99.90;;;;;;5092934;28;20032;-73
2022/11/21 09:01:39;;;;;;;79.70;21.08;;;6.00;99.90;;;;;;5094692;28;20116;-73
2022/11/21 09:04:06;;;;;;;47.13;18.50;;;6.10;99.90;;;;;;5104495;28;20098;-74
2022/11/21 09:06:31;;;;;;;45.35;19.90;;;6.30;99.90;;;;;;5105279;28;20024;-73
2022/11/21 09:08:57;;;;;;;82.20;21.48;;;6.40;99.90;;;;;;5109772;28;20018;-74
2022/11/21 09:11:26;;;;;;;56.40;18.30;;;6.50;99.90;;;;;;5106769;28;20095;-74
2022/11/21 09:19:21;;;;;;;111.13;21.35;;;6.80;99.90;;;;;;5091789;28;20047;-75
2022/11/21 09:21:51;;;;;;;75.80;18.42;;;6.80;99.90;;;;;;5094354;28;20106;-74
2022/11/21 09:24:16;;;;;;;37.55;15.93;;;6.90;99.90;;;;;;5094416;28;20107;-73
2022/11/21 09:26:42;;;;;;;41.45;17.05;;;7.00;99.90;;;;;;5094418;28;20103;-76
2022/11/21 09:29:13;;;;;;;40.10;16.23;;;7.10;99.90;;;;;;5082190;28;20032;-73
2022/11/21 09:31:40;;;;;;;46.60;16.50;;;7.10;99.90;;;;;;5095391;28;20138;-74
2022/11/21 09:34:05;;;;;;;40.35;15.45;;;7.20;99.90;;;;;;5101475;28;20032;-76
2022/11/21 09:36:31;;;;;;;79.13;18.85;;;7.20;99.90;;;;;;5073722;28;20035;-75
2022/11/21 09:38:56;;;;;;;37.95;14.68;;;7.20;99.90;;;;;;5087223;28;20024;-73
2022/11/21 09:41:52;;;;;;;35.75;15.15;;;7.20;99.90;;;;;;5082000;28;20027;-74
2022/11/21 09:44:42;;;;;;;37.47;14.35;;;7.30;99.90;;;;;;5093696;28;20024;-75
2022/11/21 09:47:28;;;;;;;33.25;14.38;;;7.50;99.90;;;;;;5080492;28;20683;-74
2022/11/21 09:50:24;;;;;;;37.90;15.27;;;7.50;99.90;;;;;;5092840;28;20472;-76
2022/11/21 09:52:52;;;;;;;35.60;13.93;;;7.60;99.90;;;;;;5088551;28;20042;-74
2022/11/21 09:55:33;;;;;;;39.15;13.60;;;7.60;99.90;;;;;;5092254;28;20023;-74
2022/11/21 09:58:15;;;;;;;29.55;12.50;;;7.60;99.90;;;;;;5091552;28;20464;-75
2022/11/21 10:00:41;;;;;;;34.75;14.45;;;7.60;99.90;;;;;;5090756;28;20110;-76
2022/11/21 10:03:12;;;;;;;36.88;14.60;;;7.60;99.90;;;;;;5093426;28;20060;-73
2022/11/21 10:05:43;;;;;;;38.05;14.23;;;7.60;99.90;;;;;;5083286;28;20078;-74
2022/11/21 10:08:40;;;;;;;33.10;14.00;;;7.50;99.90;;;;;;5084389;28;20114;-76
2022/11/21 10:11:21;;;;;;;28.95;12.25;;;7.50;99.90;;;;;;5090407;28;20035;-74
2022/11/21 10:14:15;;;;;;;29.20;13.85;;;7.50;99.90;;;;;;5081145;28;20016;-75
2022/11/21 10:17:01;;;;;;;37.28;13.80;;;7.50;99.90;;;;;;5079185;28;20581;-76
2022/11/21 10:20:11;;;;;;;31.02;13.55;;;7.50;99.90;;;;;;5093171;28;20116;-73
2022/11/21 10:23:08;;;;;;;33.85;13.20;;;7.60;99.90;;;;;;5052611;28;20060;-73
2022/11/21 10:25:38;;;;;;;101.47;17.77;;;7.60;99.90;;;;;;5081347;28;20107;-72
2022/11/21 10:28:15;;;;;;;31.23;13.00;;;7.70;99.90;;;;;;5088584;28;20034;-73
2022/11/21 10:30:46;;;;;;;27.98;12.77;;;7.70;99.90;;;;;;5081764;28;20457;-76
2022/11/21 10:33:26;;;;;;;33.03;14.23;;;7.80;99.90;;;;;;5093133;28;20369;-74
2022/11/21 10:35:56;;;;;;;32.83;14.20;;;7.80;99.90;;;;;;5092865;28;20340;-73
2022/11/21 10:38:24;;;;;;;34.17;13.50;;;7.90;99.90;;;;;;5092587;28;20016;-73
2022/11/21 10:40:59;;;;;;;31.45;14.23;;;8.10;99.90;;;;;;5096413;28;20024;-73
2022/11/21 10:46:28;;;;;;;35.15;14.90;;;8.40;99.90;;;;;;5076696;28;20069;-73
2022/11/21 10:49:00;;;;;;;28.98;12.13;;;8.50;99.90;;;;;;5087883;28;20095;-73
2022/11/21 10:51:43;;;;;;;33.15;14.55;;;8.50;99.90;;;;;;5096721;28;20036;-74
2022/11/21 10:57:13;;;;;;;36.53;16.90;;;8.80;99.90;;;;;;5096674;28;20032;-72
2022/11/21 10:59:39;;;;;;;31.77;13.63;;;9.10;99.90;;;;;;5096219;28;20112;-75
2022/11/21 11:02:13;;;;;;;29.40;14.57;;;9.20;99.90;;;;;;5097026;28;20065;-71
2022/11/21 11:04:39;;;;;;;34.83;14.98;;;9.30;99.90;;;;;;5077492;28;20059;-71
2022/11/21 11:07:24;;;;;;;29.67;13.48;;;9.40;99.90;;;;;;5078994;28;20086;-71
2022/11/21 11:09:51;;;;;;;31.02;13.60;;;9.60;99.90;;;;;;5096847;28;20085;-74
2022/11/21 11:15:25;;;;;;;30.65;12.15;;;9.80;99.90;;;;;;5096744;28;20093;-74
2022/11/21 11:17:56;;;;;;;27.35;12.60;;;9.90;99.90;;;;;;5094824;28;20034;-72
2022/11/21 11:20:35;;;;;;;27.90;13.00;;;10.10;99.90;;;;;;5088206;28;20032;-75
2022/11/21 11:23:21;;;;;;;26.52;11.73;;;10.40;99.90;;;;;;5089696;28;20429;-73
2022/11/21 11:25:49;;;;;;;24.30;12.02;;;10.80;99.90;;;;;;5096603;28;20024;-72
2022/11/21 11:28:15;;;;;;;26.65;13.35;;;11.00;99.90;;;;;;5093853;28;20036;-75
2022/11/21 11:30:41;;;;;;;22.98;11.35;;;11.10;99.90;;;;;;5096567;28;20060;-74
2022/11/21 11:33:28;;;;;;;27.23;12.68;;;11.00;99.90;;;;;;5095224;28;20036;-72
2022/11/21 11:36:09;;;;;;;27.55;12.32;;;10.90;99.90;;;;;;5094571;28;20035;-74
2022/11/21 11:38:35;;;;;;;24.92;11.85;;;10.80;99.90;;;;;;5092586;28;20016;-72
2022/11/21 11:41:12;;;;;;;25.05;11.48;;;10.70;99.90;;;;;;5093491;28;20355;-72
2022/11/21 11:52:45;;;;;;;20.55;9.20;;;11.60;99.90;;;;;;5095805;28;20058;-72
2022/11/21 11:55:22;;;;;;;20.35;9.20;;;12.10;99.90;;;;;;5095522;28;20455;-72
2022/11/21 11:57:50;;;;;;;22.70;8.98;;;12.70;99.90;;;;;;5090904;28;20062;-72
2022/11/21 12:01:05;;;;;;;15.88;7.40;;;13.10;99.90;;;;;;5108554;28;20119;-75
2022/11/21 12:04:04;;;;;;;21.13;7.75;;;13.60;99.90;;;;;;5052373;28;20033;-72
2022/11/21 12:06:36;;;;;;;19.63;7.32;;;14.00;99.90;;;;;;5093089;28;20052;-75
2022/11/21 12:09:42;;;;;;;16.85;6.65;;;14.10;99.90;;;;;;5092029;28;20076;-75
2022/11/21 12:12:38;;;;;;;12.90;5.57;;;14.40;99.90;;;;;;5093582;28;20027;-74
2022/11/21 12:18:35;;;;;;;9.02;5.07;;;14.80;99.90;;;;;;5084213;28;20051;-74
2022/11/21 12:21:19;;;;;;;12.70;4.72;;;15.00;99.90;;;;;;5095135;28;20024;-72
2022/11/21 12:23:52;;;;;;;13.65;4.35;;;14.90;99.90;;;;;;5087121;28;20061;-73
2022/11/21 12:26:49;;;;;;;8.70;4.47;;;14.80;99.90;;;;;;5090019;28;20023;-72
2022/11/21 12:30:03;;;;;;;11.77;4.80;;;14.50;99.90;;;;;;5090767;28;20067;-71
2022/11/21 12:32:56;;;;;;;11.27;4.15;;;14.10;99.90;;;;;;5066321;28;20049;-71
2022/11/21 12:35:30;;;;;;;13.30;4.05;;;13.60;99.90;;;;;;5091990;28;20044;-72
2022/11/21 12:38:15;;;;;;;6.03;2.53;;;13.30;99.90;;;;;;5093110;28;20016;-71
2022/11/21 12:42:47;;;;;;;12.57;3.75;;;12.80;99.90;;;;;;5089291;28;20068;-73
2022/11/21 12:43:56;;;;;;;12.60;3.50;;;12.30;99.90;;;;;;5090525;28;20052;-70
2022/11/21 12:46:35;;;;;;;8.40;3.17;;;11.60;99.90;;;;;;5080645;28;20024;-70
2022/11/21 12:55:30;;;;;;;10.60;3.97;;;10.90;99.90;;;;;;5094008;28;20039;-73
2022/11/21 12:58:25;;;;;;;15.57;4.97;;;10.90;99.90;;;;;;5093061;28;20513;-72
2022/11/21 13:01:15;;;;;;;16.00;4.60;;;10.80;99.90;;;;;;5093913;28;20040;-70
2022/11/21 13:04:04;;;;;;;12.55;4.10;;;10.80;99.90;;;;;;5086995;28;20357;-71
2022/11/21 13:06:40;;;;;;;13.15;4.25;;;10.80;99.90;;;;;;5083235;28;20614;-70
2022/11/21 13:09:11;;;;;;;13.90;4.20;;;10.80;99.90;;;;;;5093331;28;20106;-71
2022/11/21 13:12:04;;;;;;;11.07;4.18;;;10.90;99.90;;;;;;5089051;28;20111;-71
2022/11/21 13:14:46;;;;;;;12.50;4.53;;;10.90;99.90;;;;;;5086057;28;20491;-70
2022/11/21 13:17:24;;;;;;;12.75;3.70;;;11.00;99.90;;;;;;5082253;28;20540;-70
2022/11/21 13:20:18;;;;;;;11.77;4.25;;;11.10;99.90;;;;;;5075328;28;20110;-73
2022/11/21 13:22:43;;;;;;;11.88;3.83;;;11.00;99.90;;;;;;5081804;28;20060;-73
2022/11/21 13:25:31;;;;;;;11.15;4.22;;;11.00;99.90;;;;;;5081196;28;20739;-74
2022/11/21 13:28:20;;;;;;;14.27;4.68;;;11.10;99.90;;;;;;5086959;28;20478;-72